sensor_id;sensor_type;location;lat;lon;timestamp;P1;durP1;ratioP1;P2;durP2;ratioP2
32826;SDS011;51059;42.058;27.986;2024-01-16T00:01:23;9.90;;;8.00;;
32826;SDS011;51059;42.058;27.986;2024-01-16T00:03:49;9.67;;;7.83;;
32826;SDS011;51059;42.058;27.986;2024-01-16T00:06:15;10.30;;;7.97;;
32826;SDS011;51059;42.058;27.986;2024-01-16T00:08:40;13.03;;;8.40;;
32826;SDS011;51059;42.058;27.986;2024-01-16T00:11:07;13.43;;;8.53;;
32826;SDS011;51059;42.058;27.986;2024-01-16T00:13:33;12.37;;;8.70;;
32826;SDS011;51059;42.058;27.986;2024-01-16T00:15:59;11.60;;;7.80;;
32826;SDS011;51059;42.058;27.986;2024-01-16T00:18:26;10.03;;;8.00;;
32826;SDS011;51059;42.058;27.986;2024-01-16T00:20:54;8.90;;;8.00;;
32826;SDS011;51059;42.058;27.986;2024-01-16T00:23:19;9.67;;;8.40;;
32826;SDS011;51059;42.058;27.986;2024-01-16T00:25:44;9.93;;;8.63;;
32826;SDS011;51059;42.058;27.986;2024-01-16T00:28:10;11.63;;;8.83;;
32826;SDS011;51059;42.058;27.986;2024-01-16T00:30:35;11.13;;;9.90;;
32826;SDS011;51059;42.058;27.986;2024-01-16T00:33:01;14.30;;;10.40;;
32826;SDS011;51059;42.058;27.986;2024-01-16T00:35:28;11.37;;;10.17;;
32826;SDS011;51059;42.058;27.986;2024-01-16T00:37:53;14.20;;;10.43;;
32826;SDS011;51059;42.058;27.986;2024-01-16T00:40:19;13.20;;;10.87;;
32826;SDS011;51059;42.058;27.986;2024-01-16T00:42:45;15.10;;;11.00;;
32826;SDS011;51059;42.058;27.986;2024-01-16T00:45:10;13.30;;;11.33;;
32826;SDS011;51059;42.058;27.986;2024-01-16T00:47:38;14.97;;;11.43;;
32826;SDS011;51059;42.058;27.986;2024-01-16T00:50:04;12.03;;;10.67;;
32826;SDS011;51059;42.058;27.986;2024-01-16T00:52:32;12.57;;;10.53;;
32826;SDS011;51059;42.058;27.986;2024-01-16T00:54:58;12.90;;;10.53;;
32826;SDS011;51059;42.058;27.986;2024-01-16T00:57:25;13.57;;;10.53;;
32826;SDS011;51059;42.058;27.986;2024-01-16T00:59:57;12.67;;;10.33;;
32826;SDS011;51059;42.058;27.986;2024-01-16T01:02:23;13.80;;;10.63;;
32826;SDS011;51059;42.058;27.986;2024-01-16T01:04:48;12.83;;;10.13;;
32826;SDS011;51059;42.058;27.986;2024-01-16T01:07:15;13.53;;;10.77;;
32826;SDS011;51059;42.058;27.986;2024-01-16T01:09:41;13.47;;;9.80;;
32826;SDS011;51059;42.058;27.986;2024-01-16T01:12:07;11.93;;;9.93;;
32826;SDS011;51059;42.058;27.986;2024-01-16T01:14:33;12.47;;;10.40;;
32826;SDS011;51059;42.058;27.986;2024-01-16T01:16:59;11.67;;;10.43;;
32826;SDS011;51059;42.058;27.986;2024-01-16T01:19:24;12.77;;;10.20;;
32826;SDS011;51059;42.058;27.986;2024-01-16T01:21:50;11.63;;;9.77;;
32826;SDS011;51059;42.058;27.986;2024-01-16T01:24:16;12.53;;;10.13;;
32826;SDS011;51059;42.058;27.986;2024-01-16T01:26:45;12.40;;;10.20;;
32826;SDS011;51059;42.058;27.986;2024-01-16T01:29:10;12.30;;;10.10;;
32826;SDS011;51059;42.058;27.986;2024-01-16T01:31:35;11.70;;;10.50;;
32826;SDS011;51059;42.058;27.986;2024-01-16T01:34:02;14.80;;;10.97;;
32826;SDS011;51059;42.058;27.986;2024-01-16T01:36:28;14.00;;;10.90;;
32826;SDS011;51059;42.058;27.986;2024-01-16T01:38:54;13.07;;;11.37;;
32826;SDS011;51059;42.058;27.986;2024-01-16T01:41:20;13.43;;;11.00;;
32826;SDS011;51059;42.058;27.986;2024-01-16T01:43:46;13.80;;;11.63;;
32826;SDS011;51059;42.058;27.986;2024-01-16T01:48:40;16.50;;;12.87;;
32826;SDS011;51059;42.058;27.986;2024-01-16T01:51:06;20.27;;;13.10;;
32826;SDS011;51059;42.058;27.986;2024-01-16T01:53:34;15.33;;;13.17;;
32826;SDS011;51059;42.058;27.986;2024-01-16T01:56:04;18.00;;;13.23;;
32826;SDS011;51059;42.058;27.986;2024-01-16T01:58:33;14.30;;;11.90;;
32826;SDS011;51059;42.058;27.986;2024-01-16T02:00:58;11.57;;;10.07;;
32826;SDS011;51059;42.058;27.986;2024-01-16T02:03:25;12.60;;;10.73;;
32826;SDS011;51059;42.058;27.986;2024-01-16T02:05:52;13.27;;;11.73;;
32826;SDS011;51059;42.058;27.986;2024-01-16T02:08:17;11.47;;;10.30;;
32826;SDS011;51059;42.058;27.986;2024-01-16T02:13:13;12.73;;;9.93;;
32826;SDS011;51059;42.058;27.986;2024-01-16T02:15:39;11.23;;;10.00;;
32826;SDS011;51059;42.058;27.986;2024-01-16T02:18:07;14.40;;;10.17;;
32826;SDS011;51059;42.058;27.986;2024-01-16T02:20:33;12.37;;;8.90;;
32826;SDS011;51059;42.058;27.986;2024-01-16T02:23:00;9.87;;;8.80;;
32826;SDS011;51059;42.058;27.986;2024-01-16T02:25:27;10.10;;;8.00;;
32826;SDS011;51059;42.058;27.986;2024-01-16T02:27:54;10.13;;;9.13;;
32826;SDS011;51059;42.058;27.986;2024-01-16T02:30:19;10.87;;;8.90;;
32826;SDS011;51059;42.058;27.986;2024-01-16T02:32:45;14.33;;;9.47;;
32826;SDS011;51059;42.058;27.986;2024-01-16T02:35:10;13.43;;;9.70;;
32826;SDS011;51059;42.058;27.986;2024-01-16T02:37:37;13.53;;;9.53;;
32826;SDS011;51059;42.058;27.986;2024-01-16T02:40:03;13.40;;;9.57;;
32826;SDS011;51059;42.058;27.986;2024-01-16T02:42:32;10.93;;;8.70;;
32826;SDS011;51059;42.058;27.986;2024-01-16T02:44:58;9.50;;;8.60;;
32826;SDS011;51059;42.058;27.986;2024-01-16T02:47:23;9.30;;;8.30;;
32826;SDS011;51059;42.058;27.986;2024-01-16T02:49:49;11.30;;;8.83;;
32826;SDS011;51059;42.058;27.986;2024-01-16T02:52:15;9.53;;;8.53;;
32826;SDS011;51059;42.058;27.986;2024-01-16T02:54:41;11.53;;;9.20;;
32826;SDS011;51059;42.058;27.986;2024-01-16T02:57:07;11.00;;;8.97;;
32826;SDS011;51059;42.058;27.986;2024-01-16T02:59:33;14.10;;;10.00;;
32826;SDS011;51059;42.058;27.986;2024-01-16T03:01:58;11.93;;;8.80;;
32826;SDS011;51059;42.058;27.986;2024-01-16T03:04:25;10.67;;;9.10;;
32826;SDS011;51059;42.058;27.986;2024-01-16T03:06:50;11.77;;;9.73;;
32826;SDS011;51059;42.058;27.986;2024-01-16T03:09:16;12.63;;;9.43;;
32826;SDS011;51059;42.058;27.986;2024-01-16T03:11:41;12.83;;;8.87;;
32826;SDS011;51059;42.058;27.986;2024-01-16T03:14:06;12.40;;;9.10;;
32826;SDS011;51059;42.058;27.986;2024-01-16T03:16:32;9.90;;;8.73;;
32826;SDS011;51059;42.058;27.986;2024-01-16T03:18:58;12.53;;;9.90;;
32826;SDS011;51059;42.058;27.986;2024-01-16T03:21:24;10.17;;;9.10;;
32826;SDS011;51059;42.058;27.986;2024-01-16T03:23:50;11.77;;;8.43;;
32826;SDS011;51059;42.058;27.986;2024-01-16T03:26:15;9.50;;;8.50;;
32826;SDS011;51059;42.058;27.986;2024-01-16T03:28:41;10.83;;;8.93;;
32826;SDS011;51059;42.058;27.986;2024-01-16T03:31:08;9.53;;;8.53;;
32826;SDS011;51059;42.058;27.986;2024-01-16T03:33:33;10.90;;;8.70;;
32826;SDS011;51059;42.058;27.986;2024-01-16T03:36:00;10.27;;;8.20;;
32826;SDS011;51059;42.058;27.986;2024-01-16T03:38:26;9.23;;;7.70;;
32826;SDS011;51059;42.058;27.986;2024-01-16T03:40:52;12.40;;;8.17;;
32826;SDS011;51059;42.058;27.986;2024-01-16T03:43:18;9.23;;;8.33;;
32826;SDS011;51059;42.058;27.986;2024-01-16T03:45:44;10.23;;;8.20;;
32826;SDS011;51059;42.058;27.986;2024-01-16T03:48:10;8.83;;;7.60;;
32826;SDS011;51059;42.058;27.986;2024-01-16T03:50:37;8.10;;;6.97;;
32826;SDS011;51059;42.058;27.986;2024-01-16T03:53:03;8.50;;;7.67;;
32826;SDS011;51059;42.058;27.986;2024-01-16T03:55:31;8.90;;;8.00;;
32826;SDS011;51059;42.058;27.986;2024-01-16T03:57:56;10.13;;;8.27;;
32826;SDS011;51059;42.058;27.986;2024-01-16T04:00:23;9.77;;;7.53;;
32826;SDS011;51059;42.058;27.986;2024-01-16T04:02:49;10.37;;;9.13;;
32826;SDS011;51059;42.058;27.986;2024-01-16T04:05:15;11.53;;;10.37;;
32826;SDS011;51059;42.058;27.986;2024-01-16T04:07:40;13.23;;;11.10;;
32826;SDS011;51059;42.058;27.986;2024-01-16T04:10:06;11.17;;;10.07;;
32826;SDS011;51059;42.058;27.986;2024-01-16T04:12:32;10.93;;;9.87;;
32826;SDS011;51059;42.058;27.986;2024-01-16T04:14:57;12.47;;;10.70;;
32826;SDS011;51059;42.058;27.986;2024-01-16T04:17:23;11.00;;;9.83;;
32826;SDS011;51059;42.058;27.986;2024-01-16T04:19:48;10.87;;;9.77;;
32826;SDS011;51059;42.058;27.986;2024-01-16T04:22:15;12.80;;;10.13;;
32826;SDS011;51059;42.058;27.986;2024-01-16T04:24:40;10.70;;;9.40;;
32826;SDS011;51059;42.058;27.986;2024-01-16T04:27:06;11.37;;;9.30;;
32826;SDS011;51059;42.058;27.986;2024-01-16T04:29:35;10.03;;;9.03;;
32826;SDS011;51059;42.058;27.986;2024-01-16T04:32:01;10.47;;;9.03;;
32826;SDS011;51059;42.058;27.986;2024-01-16T04:34:27;10.20;;;8.30;;
32826;SDS011;51059;42.058;27.986;2024-01-16T04:36:52;8.90;;;8.07;;
32826;SDS011;51059;42.058;27.986;2024-01-16T04:39:19;10.97;;;9.03;;
32826;SDS011;51059;42.058;27.986;2024-01-16T04:41:44;9.43;;;8.50;;
32826;SDS011;51059;42.058;27.986;2024-01-16T04:44:09;9.53;;;8.57;;
32826;SDS011;51059;42.058;27.986;2024-01-16T04:46:35;11.07;;;8.97;;
32826;SDS011;51059;42.058;27.986;2024-01-16T04:49:01;10.97;;;8.50;;
32826;SDS011;51059;42.058;27.986;2024-01-16T04:51:27;11.30;;;9.00;;
32826;SDS011;51059;42.058;27.986;2024-01-16T04:53:59;10.90;;;8.87;;
32826;SDS011;51059;42.058;27.986;2024-01-16T04:56:24;10.03;;;9.03;;
32826;SDS011;51059;42.058;27.986;2024-01-16T04:58:50;9.93;;;8.93;;
32826;SDS011;51059;42.058;27.986;2024-01-16T05:01:15;9.63;;;8.63;;
32826;SDS011;51059;42.058;27.986;2024-01-16T05:03:41;10.13;;;8.73;;
32826;SDS011;51059;42.058;27.986;2024-01-16T05:06:12;9.77;;;8.77;;
32826;SDS011;51059;42.058;27.986;2024-01-16T05:08:38;10.33;;;8.73;;
32826;SDS011;51059;42.058;27.986;2024-01-16T05:11:04;10.67;;;8.47;;
32826;SDS011;51059;42.058;27.986;2024-01-16T05:13:31;11.20;;;9.27;;
32826;SDS011;51059;42.058;27.986;2024-01-16T05:15:58;10.30;;;8.90;;
32826;SDS011;51059;42.058;27.986;2024-01-16T05:18:24;10.60;;;9.50;;
32826;SDS011;51059;42.058;27.986;2024-01-16T05:20:50;11.00;;;9.67;;
32826;SDS011;51059;42.058;27.986;2024-01-16T05:23:15;11.70;;;10.60;;
32826;SDS011;51059;42.058;27.986;2024-01-16T05:25:41;11.80;;;10.60;;
32826;SDS011;51059;42.058;27.986;2024-01-16T05:28:06;12.60;;;11.23;;
32826;SDS011;51059;42.058;27.986;2024-01-16T05:30:32;11.50;;;10.40;;
32826;SDS011;51059;42.058;27.986;2024-01-16T05:32:59;13.37;;;11.47;;
32826;SDS011;51059;42.058;27.986;2024-01-16T05:35:26;13.23;;;11.23;;
32826;SDS011;51059;42.058;27.986;2024-01-16T05:37:53;12.90;;;11.60;;
32826;SDS011;51059;42.058;27.986;2024-01-16T05:40:18;12.63;;;11.37;;
32826;SDS011;51059;42.058;27.986;2024-01-16T05:42:44;14.33;;;12.43;;
32826;SDS011;51059;42.058;27.986;2024-01-16T05:45:10;11.93;;;10.73;;
32826;SDS011;51059;42.058;27.986;2024-01-16T05:47:36;15.87;;;12.30;;
32826;SDS011;51059;42.058;27.986;2024-01-16T05:50:02;14.93;;;13.37;;
32826;SDS011;51059;42.058;27.986;2024-01-16T05:52:27;15.67;;;14.17;;
32826;SDS011;51059;42.058;27.986;2024-01-16T05:54:55;18.27;;;14.40;;
32826;SDS011;51059;42.058;27.986;2024-01-16T05:57:23;16.03;;;14.40;;
32826;SDS011;51059;42.058;27.986;2024-01-16T05:59:48;17.77;;;15.80;;
32826;SDS011;51059;42.058;27.986;2024-01-16T06:02:15;18.07;;;16.17;;
32826;SDS011;51059;42.058;27.986;2024-01-16T06:04:40;17.90;;;15.47;;
32826;SDS011;51059;42.058;27.986;2024-01-16T06:07:06;17.37;;;15.57;;
32826;SDS011;51059;42.058;27.986;2024-01-16T06:09:40;19.17;;;17.07;;
32826;SDS011;51059;42.058;27.986;2024-01-16T06:12:05;17.67;;;15.77;;
32826;SDS011;51059;42.058;27.986;2024-01-16T06:14:32;17.53;;;15.67;;
32826;SDS011;51059;42.058;27.986;2024-01-16T06:16:58;18.13;;;15.97;;
32826;SDS011;51059;42.058;27.986;2024-01-16T06:19:24;16.40;;;14.70;;
32826;SDS011;51059;42.058;27.986;2024-01-16T06:21:50;14.53;;;13.13;;
32826;SDS011;51059;42.058;27.986;2024-01-16T06:24:15;15.87;;;13.87;;
32826;SDS011;51059;42.058;27.986;2024-01-16T06:26:41;17.87;;;14.50;;
32826;SDS011;51059;42.058;27.986;2024-01-16T06:29:07;17.10;;;14.47;;
32826;SDS011;51059;42.058;27.986;2024-01-16T06:31:33;15.57;;;13.73;;
32826;SDS011;51059;42.058;27.986;2024-01-16T06:33:59;15.70;;;14.10;;
32826;SDS011;51059;42.058;27.986;2024-01-16T06:36:24;15.07;;;13.43;;
32826;SDS011;51059;42.058;27.986;2024-01-16T06:38:50;15.70;;;13.80;;
32826;SDS011;51059;42.058;27.986;2024-01-16T06:41:15;17.17;;;13.87;;
32826;SDS011;51059;42.058;27.986;2024-01-16T06:43:41;17.57;;;13.90;;
32826;SDS011;51059;42.058;27.986;2024-01-16T06:46:06;15.03;;;13.43;;
32826;SDS011;51059;42.058;27.986;2024-01-16T06:48:33;15.87;;;14.10;;
32826;SDS011;51059;42.058;27.986;2024-01-16T06:50:59;14.73;;;12.90;;
32826;SDS011;51059;42.058;27.986;2024-01-16T06:53:27;15.33;;;12.57;;
32826;SDS011;51059;42.058;27.986;2024-01-16T06:55:53;13.50;;;11.90;;
32826;SDS011;51059;42.058;27.986;2024-01-16T06:58:18;14.43;;;11.70;;
32826;SDS011;51059;42.058;27.986;2024-01-16T07:00:43;14.17;;;12.67;;
32826;SDS011;51059;42.058;27.986;2024-01-16T07:03:10;13.23;;;11.73;;
32826;SDS011;51059;42.058;27.986;2024-01-16T07:05:37;13.30;;;11.90;;
32826;SDS011;51059;42.058;27.986;2024-01-16T07:08:02;13.87;;;11.90;;
32826;SDS011;51059;42.058;27.986;2024-01-16T07:10:30;14.70;;;11.87;;
32826;SDS011;51059;42.058;27.986;2024-01-16T07:12:57;16.87;;;12.43;;
32826;SDS011;51059;42.058;27.986;2024-01-16T07:15:23;16.50;;;13.17;;
32826;SDS011;51059;42.058;27.986;2024-01-16T07:17:48;14.40;;;12.70;;
32826;SDS011;51059;42.058;27.986;2024-01-16T07:20:15;16.23;;;12.47;;
32826;SDS011;51059;42.058;27.986;2024-01-16T07:22:40;13.60;;;11.30;;
32826;SDS011;51059;42.058;27.986;2024-01-16T07:25:06;13.53;;;11.63;;
32826;SDS011;51059;42.058;27.986;2024-01-16T07:27:32;12.83;;;10.93;;
32826;SDS011;51059;42.058;27.986;2024-01-16T07:29:58;11.63;;;9.97;;
32826;SDS011;51059;42.058;27.986;2024-01-16T07:32:23;11.93;;;10.60;;
32826;SDS011;51059;42.058;27.986;2024-01-16T07:34:48;12.50;;;9.60;;
32826;SDS011;51059;42.058;27.986;2024-01-16T07:37:14;11.23;;;9.00;;
32826;SDS011;51059;42.058;27.986;2024-01-16T07:39:41;8.33;;;7.33;;
32826;SDS011;51059;42.058;27.986;2024-01-16T07:42:07;7.83;;;7.00;;
32826;SDS011;51059;42.058;27.986;2024-01-16T07:44:33;8.27;;;6.93;;
32826;SDS011;51059;42.058;27.986;2024-01-16T07:46:58;7.20;;;5.77;;
32826;SDS011;51059;42.058;27.986;2024-01-16T07:49:25;8.40;;;6.50;;
32826;SDS011;51059;42.058;27.986;2024-01-16T07:51:51;9.03;;;6.50;;
32826;SDS011;51059;42.058;27.986;2024-01-16T07:54:18;7.47;;;6.17;;
32826;SDS011;51059;42.058;27.986;2024-01-16T07:56:43;7.67;;;6.07;;
32826;SDS011;51059;42.058;27.986;2024-01-16T07:59:09;9.87;;;6.47;;
32826;SDS011;51059;42.058;27.986;2024-01-16T08:01:34;7.80;;;6.90;;
32826;SDS011;51059;42.058;27.986;2024-01-16T08:04:00;7.40;;;6.43;;
32826;SDS011;51059;42.058;27.986;2024-01-16T08:06:25;8.73;;;6.97;;
32826;SDS011;51059;42.058;27.986;2024-01-16T08:08:51;6.87;;;6.20;;
32826;SDS011;51059;42.058;27.986;2024-01-16T08:11:17;7.97;;;6.37;;
32826;SDS011;51059;42.058;27.986;2024-01-16T08:13:43;7.80;;;6.80;;
32826;SDS011;51059;42.058;27.986;2024-01-16T08:16:09;8.27;;;5.80;;
32826;SDS011;51059;42.058;27.986;2024-01-16T08:18:35;7.87;;;5.90;;
32826;SDS011;51059;42.058;27.986;2024-01-16T08:21:01;6.90;;;5.80;;
32826;SDS011;51059;42.058;27.986;2024-01-16T08:23:29;6.20;;;5.60;;
32826;SDS011;51059;42.058;27.986;2024-01-16T08:25:54;8.43;;;5.90;;
32826;SDS011;51059;42.058;27.986;2024-01-16T08:28:20;8.20;;;5.90;;
32826;SDS011;51059;42.058;27.986;2024-01-16T08:30:47;6.70;;;6.10;;
32826;SDS011;51059;42.058;27.986;2024-01-16T08:33:14;6.13;;;5.53;;
32826;SDS011;51059;42.058;27.986;2024-01-16T08:35:40;8.03;;;6.70;;
32826;SDS011;51059;42.058;27.986;2024-01-16T08:38:07;8.43;;;6.27;;
32826;SDS011;51059;42.058;27.986;2024-01-16T08:40:34;8.90;;;6.57;;
32826;SDS011;51059;42.058;27.986;2024-01-16T08:43:00;8.87;;;7.43;;
32826;SDS011;51059;42.058;27.986;2024-01-16T08:45:26;8.43;;;7.10;;
32826;SDS011;51059;42.058;27.986;2024-01-16T08:47:58;7.50;;;6.80;;
32826;SDS011;51059;42.058;27.986;2024-01-16T08:50:25;6.90;;;6.20;;
32826;SDS011;51059;42.058;27.986;2024-01-16T08:52:51;6.20;;;5.30;;
32826;SDS011;51059;42.058;27.986;2024-01-16T08:55:16;5.03;;;4.50;;
32826;SDS011;51059;42.058;27.986;2024-01-16T08:57:42;5.33;;;4.83;;
32826;SDS011;51059;42.058;27.986;2024-01-16T09:00:08;5.33;;;4.83;;
32826;SDS011;51059;42.058;27.986;2024-01-16T09:02:37;5.57;;;4.83;;
32826;SDS011;51059;42.058;27.986;2024-01-16T09:05:02;5.10;;;4.33;;
32826;SDS011;51059;42.058;27.986;2024-01-16T09:07:28;6.13;;;5.20;;
32826;SDS011;51059;42.058;27.986;2024-01-16T09:09:54;6.07;;;5.33;;
32826;SDS011;51059;42.058;27.986;2024-01-16T09:12:20;6.40;;;5.80;;
32826;SDS011;51059;42.058;27.986;2024-01-16T09:14:45;6.00;;;5.40;;
32826;SDS011;51059;42.058;27.986;2024-01-16T09:17:11;6.17;;;5.57;;
32826;SDS011;51059;42.058;27.986;2024-01-16T09:19:36;6.43;;;5.10;;
32826;SDS011;51059;42.058;27.986;2024-01-16T09:22:02;6.03;;;4.87;;
32826;SDS011;51059;42.058;27.986;2024-01-16T09:24:29;5.70;;;5.10;;
32826;SDS011;51059;42.058;27.986;2024-01-16T09:26:54;5.97;;;5.37;;
32826;SDS011;51059;42.058;27.986;2024-01-16T09:29:20;5.50;;;5.00;;
32826;SDS011;51059;42.058;27.986;2024-01-16T09:31:49;5.80;;;5.30;;
32826;SDS011;51059;42.058;27.986;2024-01-16T09:34:14;6.30;;;5.70;;
32826;SDS011;51059;42.058;27.986;2024-01-16T09:36:40;6.00;;;5.43;;
32826;SDS011;51059;42.058;27.986;2024-01-16T09:39:06;7.73;;;5.90;;
32826;SDS011;51059;42.058;27.986;2024-01-16T09:41:37;6.70;;;6.10;;
32826;SDS011;51059;42.058;27.986;2024-01-16T09:44:03;6.87;;;6.17;;
32826;SDS011;51059;42.058;27.986;2024-01-16T09:46:30;7.37;;;6.47;;
32826;SDS011;51059;42.058;27.986;2024-01-16T09:48:56;8.20;;;6.70;;
32826;SDS011;51059;42.058;27.986;2024-01-16T09:51:23;7.47;;;6.60;;
32826;SDS011;51059;42.058;27.986;2024-01-16T09:53:50;7.03;;;6.30;;
32826;SDS011;51059;42.058;27.986;2024-01-16T09:56:18;9.20;;;6.97;;
32826;SDS011;51059;42.058;27.986;2024-01-16T09:58:48;7.30;;;6.60;;
32826;SDS011;51059;42.058;27.986;2024-01-16T10:01:14;7.80;;;7.00;;
32826;SDS011;51059;42.058;27.986;2024-01-16T10:03:41;7.33;;;6.63;;
32826;SDS011;51059;42.058;27.986;2024-01-16T10:06:09;7.73;;;6.87;;
32826;SDS011;51059;42.058;27.986;2024-01-16T10:08:35;8.17;;;7.00;;
32826;SDS011;51059;42.058;27.986;2024-01-16T10:11:00;9.27;;;7.50;;
32826;SDS011;51059;42.058;27.986;2024-01-16T10:13:26;9.23;;;7.10;;
32826;SDS011;51059;42.058;27.986;2024-01-16T10:15:52;9.30;;;7.27;;
32826;SDS011;51059;42.058;27.986;2024-01-16T10:18:24;10.03;;;7.67;;
32826;SDS011;51059;42.058;27.986;2024-01-16T10:20:50;8.97;;;7.50;;
32826;SDS011;51059;42.058;27.986;2024-01-16T10:23:22;9.90;;;8.30;;
32826;SDS011;51059;42.058;27.986;2024-01-16T10:26:04;9.50;;;8.50;;
32826;SDS011;51059;42.058;27.986;2024-01-16T10:28:30;10.30;;;8.57;;
32826;SDS011;51059;42.058;27.986;2024-01-16T10:31:08;10.87;;;9.00;;
32826;SDS011;51059;42.058;27.986;2024-01-16T10:33:34;10.60;;;8.53;;
32826;SDS011;51059;42.058;27.986;2024-01-16T10:36:13;10.23;;;9.00;;
32826;SDS011;51059;42.058;27.986;2024-01-16T10:38:40;12.13;;;9.17;;
32826;SDS011;51059;42.058;27.986;2024-01-16T10:43:38;10.03;;;8.93;;
32826;SDS011;51059;42.058;27.986;2024-01-16T10:46:22;11.10;;;9.37;;
32826;SDS011;51059;42.058;27.986;2024-01-16T10:49:02;10.60;;;8.90;;
32826;SDS011;51059;42.058;27.986;2024-01-16T10:51:28;11.00;;;8.53;;
32826;SDS011;51059;42.058;27.986;2024-01-16T10:53:58;10.13;;;9.13;;
32826;SDS011;51059;42.058;27.986;2024-01-16T10:56:24;9.60;;;8.50;;
32826;SDS011;51059;42.058;27.986;2024-01-16T10:58:55;9.33;;;8.33;;
32826;SDS011;51059;42.058;27.986;2024-01-16T11:01:23;10.73;;;8.70;;
32826;SDS011;51059;42.058;27.986;2024-01-16T11:03:50;9.10;;;8.20;;
32826;SDS011;51059;42.058;27.986;2024-01-16T11:06:18;8.67;;;7.70;;
32826;SDS011;51059;42.058;27.986;2024-01-16T11:08:46;10.23;;;8.53;;
32826;SDS011;51059;42.058;27.986;2024-01-16T11:11:13;9.33;;;8.40;;
32826;SDS011;51059;42.058;27.986;2024-01-16T11:13:39;9.33;;;8.30;;
32826;SDS011;51059;42.058;27.986;2024-01-16T11:16:05;8.30;;;7.50;;
32826;SDS011;51059;42.058;27.986;2024-01-16T11:18:33;7.87;;;7.10;;
32826;SDS011;51059;42.058;27.986;2024-01-16T11:21:00;8.50;;;7.00;;
32826;SDS011;51059;42.058;27.986;2024-01-16T11:23:26;7.60;;;6.90;;
32826;SDS011;51059;42.058;27.986;2024-01-16T11:25:54;6.70;;;6.10;;
32826;SDS011;51059;42.058;27.986;2024-01-16T11:28:20;6.00;;;5.40;;
32826;SDS011;51059;42.058;27.986;2024-01-16T11:30:46;6.77;;;6.07;;
32826;SDS011;51059;42.058;27.986;2024-01-16T11:35:55;6.47;;;5.30;;
32826;SDS011;51059;42.058;27.986;2024-01-16T11:38:21;5.87;;;5.37;;
32826;SDS011;51059;42.058;27.986;2024-01-16T11:40:47;5.70;;;5.20;;
32826;SDS011;51059;42.058;27.986;2024-01-16T11:45:58;7.20;;;4.80;;
32826;SDS011;51059;42.058;27.986;2024-01-16T11:48:24;5.27;;;4.60;;
32826;SDS011;51059;42.058;27.986;2024-01-16T11:50:50;4.93;;;4.03;;
32826;SDS011;51059;42.058;27.986;2024-01-16T11:53:32;4.70;;;4.23;;
32826;SDS011;51059;42.058;27.986;2024-01-16T12:00:55;4.03;;;3.60;;
32826;SDS011;51059;42.058;27.986;2024-01-16T12:03:23;5.47;;;4.20;;
32826;SDS011;51059;42.058;27.986;2024-01-16T12:05:58;5.20;;;4.23;;
32826;SDS011;51059;42.058;27.986;2024-01-16T12:08:23;4.30;;;3.70;;
32826;SDS011;51059;42.058;27.986;2024-01-16T12:10:49;4.90;;;4.30;;
32826;SDS011;51059;42.058;27.986;2024-01-16T12:13:15;4.47;;;4.00;;
32826;SDS011;51059;42.058;27.986;2024-01-16T12:15:42;5.30;;;3.90;;
32826;SDS011;51059;42.058;27.986;2024-01-16T12:18:08;4.13;;;3.60;;
32826;SDS011;51059;42.058;27.986;2024-01-16T12:20:35;5.27;;;3.97;;
32826;SDS011;51059;42.058;27.986;2024-01-16T12:23:05;4.93;;;4.17;;
32826;SDS011;51059;42.058;27.986;2024-01-16T12:25:32;5.57;;;4.30;;
32826;SDS011;51059;42.058;27.986;2024-01-16T12:27:58;8.47;;;3.70;;
32826;SDS011;51059;42.058;27.986;2024-01-16T12:30:26;5.23;;;4.17;;
32826;SDS011;51059;42.058;27.986;2024-01-16T12:38:01;6.27;;;3.63;;
32826;SDS011;51059;42.058;27.986;2024-01-16T12:40:27;9.07;;;3.70;;
32826;SDS011;51059;42.058;27.986;2024-01-16T12:42:53;4.90;;;4.00;;
32826;SDS011;51059;42.058;27.986;2024-01-16T12:45:19;5.40;;;4.13;;
32826;SDS011;51059;42.058;27.986;2024-01-16T12:47:54;3.90;;;3.40;;
32826;SDS011;51059;42.058;27.986;2024-01-16T12:50:23;6.33;;;3.80;;
32826;SDS011;51059;42.058;27.986;2024-01-16T12:52:49;5.53;;;3.50;;
32826;SDS011;51059;42.058;27.986;2024-01-16T12:55:16;5.00;;;3.83;;
32826;SDS011;51059;42.058;27.986;2024-01-16T12:57:43;5.00;;;3.47;;
32826;SDS011;51059;42.058;27.986;2024-01-16T13:00:25;4.77;;;3.60;;
32826;SDS011;51059;42.058;27.986;2024-01-16T13:02:51;5.03;;;3.80;;
32826;SDS011;51059;42.058;27.986;2024-01-16T13:05:18;6.17;;;3.87;;
32826;SDS011;51059;42.058;27.986;2024-01-16T13:07:44;5.27;;;3.57;;
32826;SDS011;51059;42.058;27.986;2024-01-16T13:10:10;7.87;;;3.80;;
32826;SDS011;51059;42.058;27.986;2024-01-16T13:12:37;4.83;;;3.37;;
32826;SDS011;51059;42.058;27.986;2024-01-16T13:15:03;5.97;;;3.10;;
32826;SDS011;51059;42.058;27.986;2024-01-16T13:17:32;5.67;;;3.47;;
32826;SDS011;51059;42.058;27.986;2024-01-16T13:19:58;4.37;;;3.00;;
32826;SDS011;51059;42.058;27.986;2024-01-16T13:22:24;6.47;;;3.47;;
32826;SDS011;51059;42.058;27.986;2024-01-16T13:24:49;6.43;;;3.43;;
32826;SDS011;51059;42.058;27.986;2024-01-16T13:27:14;6.13;;;3.37;;
32826;SDS011;51059;42.058;27.986;2024-01-16T13:29:40;3.53;;;3.20;;
32826;SDS011;51059;42.058;27.986;2024-01-16T13:32:08;3.73;;;3.10;;
32826;SDS011;51059;42.058;27.986;2024-01-16T13:34:33;5.50;;;3.20;;
32826;SDS011;51059;42.058;27.986;2024-01-16T13:36:59;4.20;;;2.90;;
32826;SDS011;51059;42.058;27.986;2024-01-16T13:39:26;4.60;;;3.30;;
32826;SDS011;51059;42.058;27.986;2024-01-16T13:41:52;4.73;;;3.17;;
32826;SDS011;51059;42.058;27.986;2024-01-16T13:44:18;4.03;;;2.80;;
32826;SDS011;51059;42.058;27.986;2024-01-16T13:46:44;4.70;;;2.80;;
32826;SDS011;51059;42.058;27.986;2024-01-16T13:49:10;5.37;;;2.93;;
32826;SDS011;51059;42.058;27.986;2024-01-16T13:51:35;6.20;;;3.07;;
32826;SDS011;51059;42.058;27.986;2024-01-16T13:54:01;4.33;;;3.13;;
32826;SDS011;51059;42.058;27.986;2024-01-16T13:56:26;6.43;;;3.20;;
32826;SDS011;51059;42.058;27.986;2024-01-16T13:58:52;5.33;;;3.20;;
32826;SDS011;51059;42.058;27.986;2024-01-16T14:01:17;5.90;;;3.30;;
32826;SDS011;51059;42.058;27.986;2024-01-16T14:03:45;3.63;;;3.17;;
32826;SDS011;51059;42.058;27.986;2024-01-16T14:06:12;4.07;;;3.17;;
32826;SDS011;51059;42.058;27.986;2024-01-16T14:08:39;3.93;;;2.83;;
32826;SDS011;51059;42.058;27.986;2024-01-16T14:11:04;4.13;;;2.80;;
32826;SDS011;51059;42.058;27.986;2024-01-16T14:13:30;5.70;;;3.33;;
32826;SDS011;51059;42.058;27.986;2024-01-16T14:15:56;4.10;;;3.33;;
32826;SDS011;51059;42.058;27.986;2024-01-16T14:18:23;4.63;;;2.90;;
32826;SDS011;51059;42.058;27.986;2024-01-16T14:20:49;3.10;;;2.80;;
32826;SDS011;51059;42.058;27.986;2024-01-16T14:23:14;4.27;;;3.33;;
32826;SDS011;51059;42.058;27.986;2024-01-16T14:25:41;4.07;;;2.90;;
32826;SDS011;51059;42.058;27.986;2024-01-16T14:28:06;5.90;;;2.87;;
32826;SDS011;51059;42.058;27.986;2024-01-16T14:30:32;4.47;;;3.17;;
32826;SDS011;51059;42.058;27.986;2024-01-16T14:32:58;5.20;;;3.10;;
32826;SDS011;51059;42.058;27.986;2024-01-16T14:35:24;5.17;;;3.07;;
32826;SDS011;51059;42.058;27.986;2024-01-16T14:37:50;3.67;;;3.10;;
32826;SDS011;51059;42.058;27.986;2024-01-16T14:40:22;4.80;;;3.03;;
32826;SDS011;51059;42.058;27.986;2024-01-16T14:42:57;3.37;;;2.97;;